Flight Track Log - Related Links

Times and Time Zones

All times are in EDT time to prevent confusion due to time zone crossing. See the WBR2625 flight status page for this flight to view local times or setup timezone preferences in your user account.

Time Position Orientation Groundspeed Altitude Reporting Facility
EDT Latitude Longitude Course Direction KTS MPH feet Rate Location/Type
Mon 07:57:37 PM 41.9333 -87.9167 236° Southwest 103 119 1,600  Level Chicago TRACON
Mon 07:58:31 PM 41.9167 -87.9500 236° Southwest 99 114 2,500 944 Climbing Chicago TRACON
Mon 07:59:25 PM 41.9000 -87.9667 217° Southwest 95 109 3,300 850 Climbing Chicago TRACON
Mon 08:00:31 PM 41.8833 -87.9833 217° Southwest 94 108 4,200 737 Climbing Chicago TRACON
Mon 08:01:19 PM 41.8642 -88.0022 216° Southwest 94 108 4,700 436 Climbing Chicago Center
Mon 08:02:21 PM 41.8469 -88.0336 234° Southwest 98 113 5,000 145 Climbing Chicago Center
Mon 08:03:23 PM 41.8269 -88.0794 240° Southwest 122 140 5,000  Level Chicago Center
Mon 08:04:24 PM 41.8108 -88.1289 246° West 136 157 5,000  Level Chicago Center
Mon 08:05:26 PM 41.8142 -88.1981 274° West 149 171 5,000  Level Chicago Center
Mon 08:06:28 PM 41.8164 -88.2547 273° West 152 175 5,000  Level Chicago Center
Mon 08:07:30 PM 41.8164 -88.3119 270° West 154 177 5,000 484 Level Chicago Center
Mon 08:08:32 PM 41.8197 -88.3617 275° West 147 169 6,000 871 Climbing Chicago Center
Mon 08:09:34 PM 41.8242 -88.3994 279° West 113 130 6,800 823 Climbing Chicago Center
Mon 08:10:36 PM 41.8275 -88.4486 275° West 112 129 7,700 581 Climbing Chicago Center
Mon 08:11:38 PM 41.8286 -88.4936 272° West 121 139 8,000 145 Climbing Chicago Center
Mon 08:12:40 PM 41.8272 -88.5453 268° West 136 157 8,000  Level Chicago Center
Mon 08:13:42 PM 41.8261 -88.5961 268° West 139 160 8,000  Level Chicago Center
Mon 08:14:44 PM 41.8264 -88.6456 270° West 135 155 8,000  Level Chicago Center
Mon 08:15:46 PM 41.8239 -88.7036 267° West 132 152 8,000 -48 Level Chicago Center
Mon 08:16:48 PM 41.8175 -88.7508 260° West 132 152 7,900  Descending Chicago Center
Mon 08:17:50 PM 41.7986 -88.7953 240° Southwest 139 160 8,000 48 Climbing Chicago Center
Mon 08:18:53 PM 41.7850 -88.8403 248° West 133 153 8,000 -48 Level Chicago Center
Mon 08:19:55 PM 41.7658 -88.8836 239° Southwest 135 155 7,900  Descending Chicago Center
Mon 08:20:57 PM 41.7425 -88.9372 240° Southwest 139 160 8,000 48 Climbing Chicago Center
Mon 08:21:59 PM 41.7264 -88.9806 244° Southwest 132 152 8,000  Level Chicago Center
Mon 08:23:01 PM 41.7086 -89.0272 243° Southwest 141 162 8,000  Level Chicago Center
Mon 08:24:03 PM 41.6886 -89.0753 241° Southwest 148 170 8,000  Level Chicago Center
Mon 08:25:05 PM 41.6678 -89.1228 240° Southwest 150 173 8,000 -48 Level Chicago Center
Mon 08:26:07 PM 41.6419 -89.1794 239° Southwest 149 171 7,900  Descending Chicago Center
Mon 08:27:09 PM 41.6203 -89.2264 238° Southwest 148 170 8,000 48 Climbing Chicago Center
Mon 08:28:11 PM 41.5992 -89.2747 240° Southwest 151 174 8,000  Level Chicago Center
Mon 08:29:13 PM 41.5786 -89.3222 240° Southwest 151 174 8,000  Level Chicago Center
Mon 08:30:15 PM 41.5567 -89.3683 238° Southwest 149 171 8,000  Level Chicago Center
Mon 08:31:18 PM 41.5319 -89.4256 240° Southwest 150 173 8,000  Level Chicago Center
Mon 08:32:20 PM 41.5094 -89.4739 238° Southwest 151 174 8,000  Level Chicago Center
Mon 08:33:22 PM 41.4853 -89.5200 235° Southwest 152 175 8,000  Level Chicago Center
Mon 08:34:24 PM 41.4689 -89.5692 246° West 148 170 8,000  Level Chicago Center
Mon 08:35:26 PM 41.4483 -89.6189 241° Southwest 150 173 8,000  Level Chicago Center
Mon 08:36:28 PM 41.4275 -89.6675 240° Southwest 151 174 8,000 48 Level Chicago Center
Mon 08:37:30 PM 41.4078 -89.7158 241° Southwest 149 171 8,100 48 Climbing Chicago Center
Mon 08:38:32 PM 41.3833 -89.7717 240° Southwest 147 169 8,100  Level Chicago Center
Mon 08:39:34 PM 41.3642 -89.8194 242° Southwest 147 169 8,100 -48 Level Chicago Center
Mon 08:40:36 PM 41.3425 -89.8664 238° Southwest 148 170 8,000 -48 Descending Chicago Center
Mon 08:41:38 PM 41.3231 -89.9147 242° Southwest 148 170 8,000 48 Level Chicago Center
Mon 08:42:40 PM 41.3031 -89.9611 240° Southwest 146 168 8,100 48 Climbing Chicago Center
Mon 08:43:43 PM 41.2836 -90.0072 241° Southwest 144 166 8,100 -48 Level Chicago Center
Mon 08:44:45 PM 41.2592 -90.0622 239° Southwest 144 166 8,000 -48 Descending Chicago Center
Mon 08:45:47 PM 41.2394 -90.1064 239° Southwest 141 162 8,000  Level Chicago Center
Mon 08:46:49 PM 41.2208 -90.1506 241° Southwest 138 159 8,000  Level Chicago Center
Mon 08:47:51 PM 41.2000 -90.1936 237° Southwest 138 159 8,000 48 Level Chicago Center
Mon 08:48:53 PM 41.1792 -90.2344 236° Southwest 135 155 8,100 48 Climbing Chicago Center
Mon 08:49:55 PM 41.1539 -90.2847 236° Southwest 137 158 8,100  Level Chicago Center
Mon 08:50:57 PM 41.1344 -90.3281 239° Southwest 137 158 8,100 -48 Level Chicago Center
Mon 08:51:59 PM 41.1183 -90.3678 242° Southwest 132 152 8,000 -48 Descending Chicago Center
Mon 08:53:02 PM 41.0992 -90.4111 240° Southwest 133 153 8,000  Level Chicago Center
Mon 08:54:03 PM 41.0839 -90.4533 244° Southwest 129 148 8,000  Level Chicago Center
Mon 08:55:05 PM 41.0678 -90.4947 243° Southwest 128 147 8,000 48 Level Chicago Center
Mon 08:56:07 PM 41.0450 -90.5436 238° Southwest 130 150 8,100  Climbing Chicago Center
Mon 08:57:09 PM 41.0253 -90.5828 236° Southwest 129 148 8,000 -48 Descending Chicago Center
Mon 08:58:12 PM 41.0017 -90.6206 230° Southwest 131 151 8,000  Level Chicago Center
Mon 08:59:14 PM 40.9794 -90.6608 234° Southwest 134 154 8,000 -194 Level Chicago Center
Mon 09:00:16 PM 40.9622 -90.7028 241° Southwest 132 152 7,600 -532 Descending Chicago Center
Mon 09:01:18 PM 40.9481 -90.7475 247° West 133 153 6,900 -774 Descending Chicago Center
Mon 09:02:20 PM 40.9331 -90.8053 251° West 138 159 6,000 -726 Descending Chicago Center
Mon 09:03:22 PM 40.9175 -90.8511 246° West 138 159 5,400 -581 Descending Chicago Center
Mon 09:04:24 PM 40.9039 -90.8928 247° West 131 151 4,800 -581 Descending Chicago Center
Mon 09:05:26 PM 40.8914 -90.9361 249° West 128 147 4,200 -532 Descending Chicago Center
Mon 09:06:28 PM 40.8778 -90.9767 246° West 125 144 3,700 -484 Descending Chicago Center
Mon 09:07:30 PM 40.8622 -91.0164 243° Southwest 122 140 3,200 -532 Descending Chicago Center
Mon 09:08:32 PM 40.8431 -91.0631 242° Southwest 121 139 2,600 -484 Descending Chicago Center
Mon 09:09:34 PM 40.8286 -91.0986 242° Southwest 121 139 2,200 -387 Descending Chicago Center
Mon 09:10:36 PM 40.8136 -91.1394 244° Southwest 120 138 1,800 -387 Descending Chicago Center

Login

Don't have an account? Register now (free) for customized features, flight alerts, and more!